Time;durP1;ratioP1;P1;durP2;ratioP2;P2;SDS_P1;SDS_P2;PMS_P1;PMS_P2;Temp;Humidity;BMP_temperature;BMP_pressure;BME280_temperature;BME280_humidity;BME280_pressure;Samples;Min_cycle;Max_cycle;Signal;HPM_P1;HPM_P2
2022/01/13 00:00:30;;;;;;;178.13;15.63;;;7.20;99.90;;;;;;5121022;27;20412;-76
2022/01/13 00:02:56;;;;;;;212.20;16.73;;;7.30;99.90;;;;;;5112662;27;20404;-77
2022/01/13 00:05:28;;;;;;;231.00;16.07;;;7.30;99.90;;;;;;5091252;28;20404;-76
2022/01/13 00:07:55;;;;;;;237.17;16.33;;;7.30;99.90;;;;;;5109932;27;20419;-78
2022/01/13 00:10:22;;;;;;;194.25;17.10;;;7.20;99.90;;;;;;5117240;27;20404;-75
2022/01/13 00:12:56;;;;;;;278.15;16.73;;;7.30;99.90;;;;;;5108870;27;20403;-75
2022/01/13 00:15:37;;;;;;;214.03;16.57;;;7.30;99.90;;;;;;5114675;27;20383;-76
2022/01/13 00:18:10;;;;;;;269.75;16.70;;;7.30;99.90;;;;;;5120878;27;20919;-76
2022/01/13 00:26:06;;;;;;;218.30;15.75;;;7.30;99.90;;;;;;5110276;28;20718;-77
2022/01/13 00:28:32;;;;;;;272.20;16.17;;;7.30;99.90;;;;;;5110492;27;20406;-78
2022/01/13 00:30:59;;;;;;;189.23;16.20;;;7.30;99.90;;;;;;5119745;27;20395;-76
2022/01/13 00:33:26;;;;;;;195.43;16.30;;;7.30;99.90;;;;;;5112773;27;20912;-77
2022/01/13 00:35:55;;;;;;;215.98;15.77;;;7.30;99.90;;;;;;5124136;27;20870;-77
2022/01/13 00:38:20;;;;;;;173.02;15.75;;;7.40;99.90;;;;;;5114867;27;20410;-76
2022/01/13 00:40:46;;;;;;;136.10;15.30;;;7.40;99.90;;;;;;5115859;27;20871;-77
2022/01/13 00:43:12;;;;;;;152.98;14.98;;;7.40;99.90;;;;;;5113384;27;20410;-77
2022/01/13 00:45:37;;;;;;;165.27;14.53;;;7.40;99.90;;;;;;5096876;27;20455;-76
2022/01/13 00:48:03;;;;;;;218.23;15.50;;;7.40;99.90;;;;;;5114573;27;20406;-76
2022/01/13 00:50:29;;;;;;;176.48;15.25;;;7.40;99.90;;;;;;5118939;27;20398;-77
2022/01/13 00:52:55;;;;;;;154.03;14.03;;;7.40;99.90;;;;;;5119640;27;20446;-75
2022/01/13 00:55:22;;;;;;;181.27;14.05;;;7.40;99.90;;;;;;5114794;27;20423;-74
2022/01/13 00:57:48;;;;;;;216.32;14.77;;;7.40;99.90;;;;;;5116777;27;20892;-75
2022/01/13 01:00:15;;;;;;;224.00;14.52;;;7.40;99.90;;;;;;5113115;27;20403;-75
2022/01/13 01:02:41;;;;;;;193.60;13.60;;;7.40;99.90;;;;;;5108669;27;20454;-77
2022/01/13 01:05:07;;;;;;;167.60;13.65;;;7.40;99.90;;;;;;5119404;27;20792;-76
2022/01/13 01:07:35;;;;;;;191.80;14.20;;;7.30;99.90;;;;;;5116736;27;20947;-76
2022/01/13 01:10:02;;;;;;;308.67;15.40;;;7.30;99.90;;;;;;5121355;27;20427;-75
2022/01/13 01:12:30;;;;;;;237.55;14.68;;;7.30;99.90;;;;;;5120566;27;20489;-74
2022/01/13 01:14:57;;;;;;;291.97;15.03;;;7.30;99.90;;;;;;5111753;27;20408;-75
2022/01/13 01:17:23;;;;;;;249.15;15.95;;;7.30;99.90;;;;;;5109054;27;20495;-75
2022/01/13 01:19:51;;;;;;;263.35;15.38;;;7.30;99.90;;;;;;5116301;27;20489;-74
2022/01/13 01:27:20;;;;;;;226.48;16.00;;;7.30;99.90;;;;;;5112109;27;20892;-75
2022/01/13 01:29:55;;;;;;;249.15;17.50;;;7.30;99.90;;;;;;5122236;27;20713;-76
2022/01/13 01:32:20;;;;;;;232.17;16.50;;;7.30;99.90;;;;;;5118199;27;20415;-75
2022/01/13 01:37:19;;;;;;;288.77;17.63;;;7.30;99.90;;;;;;5111429;27;20444;-75
2022/01/13 01:39:48;;;;;;;281.30;17.93;;;7.30;99.90;;;;;;5110601;27;20490;-76
2022/01/13 01:42:14;;;;;;;270.17;18.20;;;7.30;99.90;;;;;;5113254;27;20929;-76
2022/01/13 01:44:44;;;;;;;291.80;18.70;;;7.30;99.90;;;;;;5097678;27;20482;-76
2022/01/13 01:47:14;;;;;;;269.27;19.60;;;7.30;99.90;;;;;;5114871;27;20404;-75
2022/01/13 01:49:43;;;;;;;249.32;18.73;;;7.30;99.90;;;;;;5115502;27;20412;-75
2022/01/13 01:52:11;;;;;;;303.00;20.35;;;7.30;99.90;;;;;;5119973;27;20415;-76
2022/01/13 01:54:37;;;;;;;285.23;19.63;;;7.30;99.90;;;;;;5118809;28;20753;-74
2022/01/13 01:57:03;;;;;;;277.88;19.65;;;7.30;99.90;;;;;;5120066;27;20410;-76
2022/01/13 01:59:32;;;;;;;312.10;20.52;;;7.30;99.90;;;;;;5119182;28;20411;-76
2022/01/13 02:01:58;;;;;;;271.33;20.88;;;7.30;99.90;;;;;;5111846;27;20432;-74
2022/01/13 02:04:26;;;;;;;310.85;21.67;;;7.30;99.90;;;;;;5116434;28;20478;-76
2022/01/13 02:06:54;;;;;;;254.88;22.45;;;7.30;99.90;;;;;;5111671;28;20510;-75
2022/01/13 02:09:22;;;;;;;208.63;22.13;;;7.30;99.90;;;;;;5121335;28;20412;-75
2022/01/13 02:11:53;;;;;;;284.00;22.67;;;7.30;99.90;;;;;;5120013;27;20440;-77
2022/01/13 02:17:08;;;;;;;360.70;22.95;;;7.40;99.90;;;;;;5114142;28;20892;-77
2022/01/13 02:19:37;;;;;;;281.08;23.05;;;7.40;99.90;;;;;;5118225;28;20419;-77
2022/01/13 02:22:03;;;;;;;267.80;22.70;;;7.40;99.90;;;;;;5106880;28;20400;-76
2022/01/13 02:24:29;;;;;;;318.50;22.67;;;7.30;99.90;;;;;;5112922;28;20411;-78
2022/01/13 02:26:55;;;;;;;280.50;23.77;;;7.30;99.90;;;;;;5113229;28;20882;-74
2022/01/13 02:29:21;;;;;;;328.73;22.42;;;7.40;99.90;;;;;;5115367;28;20404;-76
2022/01/13 02:31:47;;;;;;;268.67;22.00;;;7.40;99.90;;;;;;5106488;28;20409;-77
2022/01/13 02:34:13;;;;;;;334.45;22.00;;;7.40;99.90;;;;;;5118236;27;20468;-76
2022/01/13 02:36:44;;;;;;;338.67;22.73;;;7.40;99.90;;;;;;5118196;27;20413;-77
2022/01/13 02:39:09;;;;;;;270.48;19.02;;;7.30;99.90;;;;;;5119571;27;20748;-76
2022/01/13 02:41:35;;;;;;;247.40;19.40;;;6.90;99.90;;;;;;5111715;27;20260;-75
2022/01/13 02:44:02;;;;;;;213.68;18.08;;;6.70;99.90;;;;;;5121422;27;20220;-76
2022/01/13 02:49:05;;;;;;;253.32;19.23;;;6.30;99.90;;;;;;5117160;27;20195;-74
2022/01/13 02:51:31;;;;;;;249.40;22.35;;;6.20;99.90;;;;;;5119139;27;20410;-77
2022/01/13 02:53:57;;;;;;;258.53;25.33;;;6.60;99.90;;;;;;5120264;27;20439;-75
2022/01/13 02:56:23;;;;;;;316.20;25.15;;;6.90;99.90;;;;;;5121498;27;20495;-73
2022/01/13 02:58:49;;;;;;;305.48;25.73;;;7.10;99.90;;;;;;5111082;28;20402;-73
2022/01/13 03:01:15;;;;;;;248.02;25.92;;;7.20;99.90;;;;;;5115447;27;20400;-75
2022/01/13 03:03:42;;;;;;;241.40;25.90;;;7.30;99.90;;;;;;5126306;27;20963;-74
2022/01/13 03:06:13;;;;;;;244.50;26.65;;;7.30;99.90;;;;;;5117265;27;20402;-74
2022/01/13 03:08:43;;;;;;;249.85;26.52;;;7.40;99.90;;;;;;5109645;28;20404;-73
2022/01/13 03:11:09;;;;;;;275.77;27.87;;;7.40;99.90;;;;;;5113046;27;20428;-73
2022/01/13 03:13:35;;;;;;;301.83;28.80;;;7.50;99.90;;;;;;5099109;27;20931;-75
2022/01/13 03:16:09;;;;;;;355.13;30.45;;;7.50;99.90;;;;;;5105959;27;20437;-74
2022/01/13 03:18:36;;;;;;;328.67;30.27;;;7.60;99.90;;;;;;5111819;27;20414;-75
2022/01/13 03:21:02;;;;;;;255.83;30.10;;;7.60;99.90;;;;;;5095462;27;20728;-77
2022/01/13 03:23:28;;;;;;;328.80;30.98;;;7.60;99.90;;;;;;5095362;28;20414;-78
2022/01/13 03:25:54;;;;;;;266.55;30.35;;;7.60;99.90;;;;;;5121131;27;20412;-76
2022/01/13 03:28:29;;;;;;;305.60;31.37;;;7.60;99.90;;;;;;5114708;27;20408;-77
2022/01/13 03:30:56;;;;;;;331.23;31.60;;;7.60;99.90;;;;;;5120469;27;20406;-77
2022/01/13 03:33:22;;;;;;;308.55;30.42;;;7.60;99.90;;;;;;5109630;28;20446;-76
2022/01/13 03:35:48;;;;;;;273.50;30.13;;;7.60;99.90;;;;;;5123217;27;20383;-77
2022/01/13 03:38:14;;;;;;;300.57;31.27;;;7.60;99.90;;;;;;5120449;27;20422;-77
2022/01/13 03:40:39;;;;;;;305.42;31.98;;;7.60;99.90;;;;;;5117051;27;20400;-76
2022/01/13 03:43:06;;;;;;;343.67;32.23;;;7.60;99.90;;;;;;5118661;27;20517;-76
2022/01/13 03:45:32;;;;;;;351.75;32.00;;;7.60;99.90;;;;;;5122809;27;21104;-76
2022/01/13 03:48:02;;;;;;;303.17;32.85;;;7.60;99.90;;;;;;5114796;27;20888;-77
2022/01/13 03:50:28;;;;;;;336.38;33.83;;;7.60;99.90;;;;;;5111596;27;20412;-78
2022/01/13 03:53:02;;;;;;;325.70;29.58;;;7.70;99.90;;;;;;5114350;27;20546;-76
2022/01/13 03:56:03;;;;;;;286.10;27.77;;;7.30;99.90;;;;;;5127709;27;20172;-76
2022/01/13 03:59:29;;;;;;;326.23;28.05;;;6.90;99.90;;;;;;5092757;28;20628;-76
2022/01/13 04:02:11;;;;;;;339.35;26.90;;;6.70;99.90;;;;;;5109765;27;20223;-75
2022/01/13 04:04:44;;;;;;;270.27;27.63;;;6.60;99.90;;;;;;5092407;27;20188;-75
2022/01/13 04:07:14;;;;;;;245.43;26.90;;;6.50;99.90;;;;;;5090551;28;20234;-75
2022/01/13 04:09:40;;;;;;;280.10;26.58;;;6.40;99.90;;;;;;5119837;27;20306;-77
2022/01/13 04:12:08;;;;;;;386.38;33.05;;;6.40;99.90;;;;;;5118579;27;20512;-76
2022/01/13 04:17:11;;;;;;;351.00;32.80;;;7.10;99.90;;;;;;5122507;27;20489;-77
2022/01/13 04:19:37;;;;;;;448.85;34.55;;;7.30;99.90;;;;;;5122204;27;20424;-76
2022/01/13 04:22:03;;;;;;;399.63;31.25;;;7.50;99.90;;;;;;5116217;27;20439;-77
2022/01/13 04:24:28;;;;;;;381.27;30.80;;;7.50;99.90;;;;;;5120666;27;20411;-76
2022/01/13 04:26:56;;;;;;;366.37;30.40;;;7.60;99.90;;;;;;5096947;28;20412;-76
2022/01/13 04:29:31;;;;;;;422.30;30.40;;;7.60;99.90;;;;;;5119262;27;20400;-77
2022/01/13 04:31:56;;;;;;;383.73;29.30;;;7.60;99.90;;;;;;5110525;27;20412;-77
2022/01/13 04:34:22;;;;;;;342.57;28.20;;;7.70;99.90;;;;;;5117612;27;20420;-76
2022/01/13 04:36:48;;;;;;;343.17;25.48;;;7.70;99.90;;;;;;5114991;27;20181;-77
2022/01/13 04:39:14;;;;;;;230.93;22.50;;;7.30;99.90;;;;;;5117624;27;20192;-76
2022/01/13 04:41:43;;;;;;;400.08;22.67;;;7.00;99.90;;;;;;5123005;27;20189;-77
2022/01/13 04:44:13;;;;;;;334.08;22.20;;;6.80;99.90;;;;;;5122570;27;20220;-77
2022/01/13 04:46:39;;;;;;;292.23;21.85;;;6.70;99.90;;;;;;5108563;27;20638;-75
2022/01/13 04:49:06;;;;;;;337.58;22.27;;;6.60;99.90;;;;;;5116152;27;20381;-76
2022/01/13 04:51:32;;;;;;;292.83;22.25;;;6.60;99.90;;;;;;5115600;27;20229;-77
2022/01/13 04:53:58;;;;;;;312.02;23.63;;;6.50;99.90;;;;;;5119473;27;20177;-75
2022/01/13 04:56:38;;;;;;;327.92;21.95;;;6.50;99.90;;;;;;5114792;27;20204;-76
2022/01/13 04:59:05;;;;;;;349.80;22.88;;;6.50;99.90;;;;;;5120687;27;20692;-76
2022/01/13 05:01:30;;;;;;;324.45;23.80;;;6.40;99.90;;;;;;5118150;27;20180;-77
2022/01/13 05:03:56;;;;;;;292.83;22.92;;;6.40;99.90;;;;;;5117232;27;20676;-76
2022/01/13 05:06:22;;;;;;;296.55;22.98;;;6.40;99.90;;;;;;5114769;27;20284;-78
2022/01/13 05:08:48;;;;;;;342.25;23.80;;;6.40;99.90;;;;;;5120837;27;20263;-77
2022/01/13 05:11:15;;;;;;;383.48;26.63;;;6.40;99.90;;;;;;5116885;27;20547;-76
2022/01/13 05:13:41;;;;;;;353.48;24.23;;;6.40;99.90;;;;;;5116654;27;20234;-76
2022/01/13 05:16:10;;;;;;;332.00;23.27;;;6.40;99.90;;;;;;5117614;27;20208;-75
2022/01/13 05:21:05;;;;;;;332.42;23.25;;;6.40;99.90;;;;;;5117398;27;20177;-73
2022/01/13 05:23:31;;;;;;;311.90;23.55;;;6.40;99.90;;;;;;5119876;27;20193;-78
2022/01/13 05:25:57;;;;;;;323.98;24.30;;;6.40;99.90;;;;;;5120732;27;20180;-75
2022/01/13 05:28:23;;;;;;;310.13;23.23;;;6.40;99.90;;;;;;5094367;28;20622;-78
2022/01/13 05:30:48;;;;;;;244.27;23.10;;;6.40;99.90;;;;;;5117972;27;20181;-77
2022/01/13 05:33:14;;;;;;;235.10;23.02;;;6.40;99.90;;;;;;5120720;27;21060;-76
2022/01/13 05:35:40;;;;;;;340.48;24.20;;;6.40;99.90;;;;;;5121295;27;20169;-76
2022/01/13 05:38:09;;;;;;;314.67;23.00;;;6.50;99.90;;;;;;5119320;27;20176;-78
2022/01/13 05:40:36;;;;;;;317.52;21.83;;;6.50;99.90;;;;;;5120556;27;21526;-79
2022/01/13 05:43:02;;;;;;;265.17;23.63;;;6.50;99.90;;;;;;5115660;27;20692;-77
2022/01/13 05:45:29;;;;;;;312.60;22.75;;;6.50;99.90;;;;;;5116011;27;20189;-76
2022/01/13 05:47:57;;;;;;;308.00;23.95;;;6.50;99.90;;;;;;5115933;28;20796;-77
2022/01/13 05:50:24;;;;;;;275.13;21.90;;;6.50;99.90;;;;;;5110380;28;20649;-77
2022/01/13 05:52:49;;;;;;;273.60;22.83;;;6.50;99.90;;;;;;5109193;28;20185;-75
2022/01/13 05:55:17;;;;;;;298.30;22.50;;;6.50;99.90;;;;;;5110328;28;20786;-78
2022/01/13 05:57:43;;;;;;;300.90;24.33;;;6.50;99.90;;;;;;5111667;28;20590;-76
2022/01/13 06:00:11;;;;;;;213.50;23.45;;;6.50;99.90;;;;;;5112581;28;20223;-76
2022/01/13 06:02:38;;;;;;;250.43;23.33;;;6.50;99.90;;;;;;5115741;28;20197;-74
2022/01/13 06:05:04;;;;;;;248.88;22.45;;;6.50;99.90;;;;;;5115270;28;20267;-77
2022/01/13 06:07:30;;;;;;;275.05;22.42;;;6.50;99.90;;;;;;5113028;28;20216;-75
2022/01/13 06:09:55;;;;;;;256.50;22.60;;;6.50;99.90;;;;;;5125390;27;20181;-79
2022/01/13 06:12:31;;;;;;;295.58;23.73;;;6.50;99.90;;;;;;5118746;27;20181;-75
2022/01/13 06:14:58;;;;;;;220.95;22.13;;;6.50;99.90;;;;;;5118070;27;20579;-76
2022/01/13 06:17:23;;;;;;;221.02;22.33;;;6.50;99.90;;;;;;5112536;27;20177;-73
2022/01/13 06:19:49;;;;;;;201.50;22.48;;;6.50;99.90;;;;;;5114514;27;20669;-76
2022/01/13 06:22:14;;;;;;;222.25;21.42;;;6.50;99.90;;;;;;5118001;27;20189;-75
2022/01/13 06:24:40;;;;;;;230.35;22.10;;;6.60;99.90;;;;;;5115849;27;20191;-76
2022/01/13 06:27:06;;;;;;;210.25;22.13;;;6.60;99.90;;;;;;5115646;27;20200;-76
2022/01/13 06:29:31;;;;;;;251.18;22.45;;;6.60;99.90;;;;;;5114122;27;20257;-74
2022/01/13 06:31:57;;;;;;;284.73;23.33;;;6.60;99.90;;;;;;5109230;27;20269;-76
2022/01/13 06:34:23;;;;;;;250.50;22.23;;;6.50;99.90;;;;;;5113017;28;20676;-75
2022/01/13 06:36:49;;;;;;;292.77;23.00;;;6.60;99.90;;;;;;5119246;27;20272;-76
2022/01/13 06:39:14;;;;;;;305.35;23.58;;;6.60;99.90;;;;;;5123136;27;20279;-79
2022/01/13 06:41:40;;;;;;;216.77;22.38;;;6.60;99.90;;;;;;5109185;28;20225;-75
2022/01/13 06:44:06;;;;;;;276.42;23.38;;;6.60;99.90;;;;;;5112484;27;20220;-75
2022/01/13 06:46:32;;;;;;;292.10;22.35;;;6.60;99.90;;;;;;5111240;27;20201;-76
2022/01/13 06:48:58;;;;;;;253.35;21.73;;;6.60;99.90;;;;;;5130638;27;20208;-77
2022/01/13 06:51:23;;;;;;;283.75;22.17;;;6.70;99.90;;;;;;5116702;27;20264;-76
2022/01/13 06:53:49;;;;;;;213.52;22.75;;;6.70;99.90;;;;;;5112345;28;20645;-73
2022/01/13 06:56:15;;;;;;;266.08;23.58;;;6.70;99.90;;;;;;5116231;27;20189;-75
2022/01/13 06:58:44;;;;;;;250.23;22.88;;;6.70;99.90;;;;;;5108507;27;20550;-74
2022/01/13 07:01:10;;;;;;;273.95;22.77;;;6.70;99.90;;;;;;5113510;27;20177;-72
2022/01/13 07:03:35;;;;;;;282.95;23.20;;;6.70;99.90;;;;;;5119783;27;20191;-74
2022/01/13 07:06:01;;;;;;;258.02;24.13;;;6.70;99.90;;;;;;5121935;27;20618;-76
2022/01/13 07:08:26;;;;;;;200.80;23.63;;;6.70;99.90;;;;;;5119338;27;20212;-76
2022/01/13 07:10:52;;;;;;;258.65;23.85;;;6.70;99.90;;;;;;5111328;27;20217;-75
2022/01/13 07:13:18;;;;;;;261.85;24.08;;;6.70;99.90;;;;;;5112276;28;20177;-76
2022/01/13 07:15:45;;;;;;;269.70;23.27;;;6.80;99.90;;;;;;5116345;27;20638;-74
2022/01/13 07:18:11;;;;;;;254.68;23.75;;;6.80;99.90;;;;;;5110825;27;20181;-76
2022/01/13 07:20:39;;;;;;;278.25;25.10;;;6.80;99.90;;;;;;5112955;27;20200;-75
2022/01/13 07:23:06;;;;;;;291.58;24.58;;;6.80;99.90;;;;;;5112193;27;20193;-76
2022/01/13 07:25:31;;;;;;;197.70;23.23;;;6.80;99.90;;;;;;5093235;28;20185;-75
2022/01/13 07:27:58;;;;;;;275.88;23.33;;;6.80;99.90;;;;;;5110125;28;20204;-73
2022/01/13 07:30:24;;;;;;;212.65;23.50;;;6.80;99.90;;;;;;5094892;28;20223;-76
2022/01/13 07:32:49;;;;;;;296.55;23.80;;;6.80;99.90;;;;;;5115073;27;20564;-77
2022/01/13 07:35:15;;;;;;;266.67;24.13;;;6.80;99.90;;;;;;5113470;27;20189;-75
2022/01/13 07:37:42;;;;;;;263.70;24.73;;;6.80;99.90;;;;;;5112251;27;20217;-73
2022/01/13 07:40:13;;;;;;;293.38;22.75;;;6.80;99.90;;;;;;5119191;27;20257;-74
2022/01/13 07:42:43;;;;;;;283.30;24.15;;;6.80;99.90;;;;;;5121076;27;20712;-74
2022/01/13 07:45:11;;;;;;;294.60;24.58;;;6.80;99.90;;;;;;5115092;27;20244;-75
2022/01/13 07:47:36;;;;;;;221.90;22.30;;;6.80;99.90;;;;;;5108097;27;20201;-74
2022/01/13 07:50:07;;;;;;;255.90;22.92;;;6.80;99.90;;;;;;5109860;27;20802;-73
2022/01/13 07:52:33;;;;;;;244.40;23.65;;;6.80;99.90;;;;;;5106015;27;20185;-73
2022/01/13 07:54:58;;;;;;;212.95;23.75;;;6.80;99.90;;;;;;5109620;27;20273;-74
2022/01/13 07:57:24;;;;;;;278.45;23.52;;;6.80;99.90;;;;;;5107808;28;20669;-74
2022/01/13 07:59:51;;;;;;;203.63;22.35;;;6.80;99.90;;;;;;5105852;27;20982;-74
2022/01/13 08:02:16;;;;;;;275.17;24.13;;;6.80;99.90;;;;;;5106035;28;20278;-74
2022/01/13 08:04:42;;;;;;;289.75;23.67;;;6.80;99.90;;;;;;5092586;28;20659;-74
2022/01/13 08:07:08;;;;;;;350.92;23.92;;;6.80;99.90;;;;;;5105516;28;20237;-73
2022/01/13 08:09:33;;;;;;;237.00;24.63;;;6.80;99.90;;;;;;5108875;27;20223;-73
2022/01/13 08:11:59;;;;;;;252.15;23.98;;;6.80;99.90;;;;;;5108519;28;20234;-74
2022/01/13 08:14:24;;;;;;;260.35;23.65;;;6.80;99.90;;;;;;5110856;28;20177;-75
2022/01/13 08:16:55;;;;;;;269.70;24.63;;;6.80;99.90;;;;;;5109011;28;20210;-74
2022/01/13 08:22:22;;;;;;;255.48;23.98;;;6.90;99.90;;;;;;5033283;28;20210;-73
2022/01/13 08:24:47;;;;;;;247.20;23.67;;;6.80;99.90;;;;;;5093844;28;20193;-75
2022/01/13 08:27:13;;;;;;;236.93;24.02;;;6.90;99.90;;;;;;5117596;27;20304;-74
2022/01/13 08:29:39;;;;;;;188.27;23.23;;;6.90;99.90;;;;;;5113916;27;20188;-73
2022/01/13 08:32:05;;;;;;;221.85;25.08;;;6.90;99.90;;;;;;5107855;28;20546;-74
2022/01/13 08:34:30;;;;;;;177.73;26.50;;;6.90;99.90;;;;;;5118037;27;20184;-74
2022/01/13 08:36:56;;;;;;;211.10;27.17;;;6.90;99.90;;;;;;5113328;27;20177;-74
2022/01/13 08:39:22;;;;;;;195.55;23.85;;;6.90;99.90;;;;;;5128890;27;20188;-75
2022/01/13 08:41:49;;;;;;;246.68;25.50;;;6.90;99.90;;;;;;5113026;27;20280;-75
2022/01/13 08:44:15;;;;;;;250.40;26.30;;;7.00;99.90;;;;;;5106954;27;20196;-77
2022/01/13 08:46:40;;;;;;;243.25;26.55;;;7.00;99.90;;;;;;5109952;27;20689;-76
2022/01/13 08:49:06;;;;;;;200.10;26.08;;;7.00;99.90;;;;;;5116469;27;20235;-77
2022/01/13 08:51:32;;;;;;;198.40;26.67;;;7.00;99.90;;;;;;5114760;27;20204;-74
2022/01/13 08:53:58;;;;;;;170.70;28.05;;;7.00;99.90;;;;;;5110972;27;20212;-77
2022/01/13 08:56:24;;;;;;;185.98;27.45;;;7.00;99.90;;;;;;5119368;27;20217;-77
2022/01/13 08:58:50;;;;;;;187.60;28.60;;;7.10;99.90;;;;;;5112895;27;20640;-75
2022/01/13 09:01:15;;;;;;;168.77;28.85;;;7.10;99.90;;;;;;5112765;27;20234;-77
2022/01/13 09:03:41;;;;;;;174.27;28.85;;;7.20;99.90;;;;;;5111802;27;20176;-78
2022/01/13 09:06:07;;;;;;;170.45;30.38;;;7.20;99.90;;;;;;5118467;27;20184;-77
2022/01/13 09:08:33;;;;;;;186.40;32.08;;;7.20;99.90;;;;;;5114409;27;20196;-78
2022/01/13 09:10:59;;;;;;;164.55;31.33;;;7.20;99.90;;;;;;5112262;27;20192;-74
2022/01/13 09:13:25;;;;;;;162.95;32.47;;;7.20;99.90;;;;;;5110703;27;20634;-76
2022/01/13 09:15:58;;;;;;;165.77;35.47;;;7.30;99.90;;;;;;5125349;27;20208;-76
2022/01/13 09:18:34;;;;;;;152.52;32.75;;;7.30;99.90;;;;;;5114581;27;20188;-76
2022/01/13 09:21:01;;;;;;;163.65;37.78;;;7.30;99.90;;;;;;5118487;27;20211;-75
2022/01/13 09:23:27;;;;;;;177.25;36.60;;;7.40;99.90;;;;;;5109418;27;20219;-76
2022/01/13 09:25:54;;;;;;;170.65;33.83;;;7.40;99.90;;;;;;5117039;27;20212;-76
2022/01/13 09:28:20;;;;;;;194.52;33.47;;;7.40;99.90;;;;;;5111923;27;20212;-73
2022/01/13 09:30:46;;;;;;;174.98;34.10;;;7.40;99.90;;;;;;5109486;28;20181;-73
2022/01/13 09:33:11;;;;;;;156.50;33.88;;;7.50;99.90;;;;;;5112246;27;20273;-75
2022/01/13 09:35:37;;;;;;;176.57;36.00;;;7.50;99.90;;;;;;5110149;28;20173;-72
2022/01/13 09:38:03;;;;;;;168.13;34.83;;;7.50;99.90;;;;;;5108005;28;20184;-76
2022/01/13 09:40:29;;;;;;;179.15;35.22;;;7.50;99.90;;;;;;5110077;28;20218;-75
2022/01/13 09:42:55;;;;;;;155.27;34.35;;;7.60;99.90;;;;;;5107509;28;20294;-76
2022/01/13 09:45:21;;;;;;;170.88;36.75;;;7.60;99.90;;;;;;5107627;27;21045;-73
2022/01/13 09:47:49;;;;;;;170.93;34.05;;;7.60;99.90;;;;;;5105081;28;20292;-75
2022/01/13 09:50:20;;;;;;;173.48;33.80;;;7.60;99.90;;;;;;5109352;28;20665;-76
2022/01/13 09:52:47;;;;;;;187.98;32.88;;;7.60;99.90;;;;;;5108193;28;20196;-75
2022/01/13 09:55:14;;;;;;;169.85;30.65;;;7.60;99.90;;;;;;5114782;27;20185;-74
2022/01/13 09:57:43;;;;;;;169.05;28.55;;;7.60;99.90;;;;;;5114865;27;20551;-73
2022/01/13 10:00:10;;;;;;;167.45;31.52;;;7.60;99.90;;;;;;5109317;28;20238;-74
2022/01/13 10:02:36;;;;;;;165.32;30.85;;;7.60;99.90;;;;;;5112027;28;20216;-75
2022/01/13 10:05:02;;;;;;;143.48;29.10;;;7.60;99.90;;;;;;5109274;28;20206;-74
2022/01/13 10:07:34;;;;;;;133.05;31.58;;;7.60;99.90;;;;;;5111961;28;20695;-73
2022/01/13 10:10:05;;;;;;;156.38;34.92;;;7.60;99.90;;;;;;5115079;28;20543;-75
2022/01/13 10:12:38;;;;;;;142.10;33.35;;;7.60;99.90;;;;;;5112310;27;20630;-74
2022/01/13 10:17:51;;;;;;;137.38;34.00;;;7.70;99.90;;;;;;5111739;28;20192;-73
2022/01/13 10:20:19;;;;;;;140.57;33.47;;;7.70;99.90;;;;;;5112373;27;20499;-73
2022/01/13 10:22:46;;;;;;;142.20;33.25;;;7.70;99.90;;;;;;5107634;28;20241;-76
2022/01/13 10:25:36;;;;;;;158.32;36.65;;;7.70;99.90;;;;;;5119501;28;20189;-75
2022/01/13 10:28:12;;;;;;;151.30;34.90;;;7.70;99.90;;;;;;5113804;28;20236;-76
2022/01/13 10:30:39;;;;;;;139.88;34.10;;;7.70;99.90;;;;;;5116861;28;20754;-76
2022/01/13 10:33:22;;;;;;;147.32;35.70;;;7.70;99.90;;;;;;5120996;28;20649;-74
2022/01/13 10:35:50;;;;;;;140.85;33.28;;;7.70;99.90;;;;;;5120761;28;20268;-75
2022/01/13 10:38:17;;;;;;;143.77;33.63;;;7.70;99.90;;;;;;5116774;28;20220;-75
2022/01/13 10:40:48;;;;;;;135.75;33.60;;;7.70;99.90;;;;;;5114849;28;20193;-74
2022/01/13 10:43:22;;;;;;;113.40;30.13;;;7.70;99.90;;;;;;5113517;27;20232;-74
2022/01/13 10:45:49;;;;;;;138.07;34.92;;;7.70;99.90;;;;;;5113639;28;20184;-75
2022/01/13 10:48:22;;;;;;;129.10;32.42;;;7.60;99.90;;;;;;5099473;28;20215;-74
2022/01/13 10:50:56;;;;;;;126.25;34.22;;;7.70;99.90;;;;;;5108296;28;20185;-70
2022/01/13 10:53:29;;;;;;;121.05;31.70;;;7.70;99.90;;;;;;5106484;28;20177;-72
2022/01/13 10:56:01;;;;;;;122.63;32.15;;;7.70;99.90;;;;;;5111560;28;20219;-73
2022/01/13 10:58:30;;;;;;;112.05;32.10;;;7.70;99.90;;;;;;5110438;28;20193;-70
2022/01/13 11:00:57;;;;;;;133.38;34.15;;;7.70;99.90;;;;;;5120082;27;20197;-72
2022/01/13 11:03:26;;;;;;;119.15;32.75;;;7.70;99.90;;;;;;5113172;27;20537;-72
2022/01/13 11:06:06;;;;;;;130.35;32.08;;;7.70;99.90;;;;;;5130242;27;20680;-73
2022/01/13 11:08:41;;;;;;;141.48;33.50;;;7.70;99.90;;;;;;5113550;27;20204;-70
2022/01/13 11:11:17;;;;;;;142.45;33.25;;;7.70;99.90;;;;;;5112604;28;20177;-75
2022/01/13 11:13:54;;;;;;;144.82;34.35;;;7.70;99.90;;;;;;5110926;28;20184;-74
2022/01/13 11:16:21;;;;;;;138.52;32.47;;;7.70;99.90;;;;;;5128008;27;20219;-75
2022/01/13 11:18:47;;;;;;;127.88;32.13;;;7.70;99.90;;;;;;5110214;28;21004;-75
2022/01/13 11:21:13;;;;;;;117.20;32.25;;;7.80;99.90;;;;;;5120504;27;20199;-74
2022/01/13 11:23:41;;;;;;;128.57;32.17;;;7.80;99.90;;;;;;5124118;27;20185;-74
2022/01/13 11:26:08;;;;;;;110.22;32.97;;;7.80;99.90;;;;;;5114969;27;20195;-75
2022/01/13 11:28:37;;;;;;;114.53;32.72;;;7.80;99.90;;;;;;5103033;27;20205;-74
2022/01/13 11:31:03;;;;;;;126.53;34.33;;;7.80;99.90;;;;;;5094946;28;20636;-75
2022/01/13 11:33:29;;;;;;;117.47;34.50;;;7.90;99.90;;;;;;5102514;27;20177;-75
2022/01/13 11:35:56;;;;;;;114.05;34.20;;;7.90;99.90;;;;;;5117211;27;20200;-75
2022/01/13 11:38:24;;;;;;;123.65;34.67;;;7.90;99.90;;;;;;5109981;28;20187;-75
2022/01/13 11:41:05;;;;;;;112.25;33.70;;;7.90;99.90;;;;;;5110831;27;20209;-75
2022/01/13 11:43:39;;;;;;;116.38;35.25;;;8.00;99.90;;;;;;5126748;27;20224;-75
2022/01/13 11:46:24;;;;;;;118.07;34.67;;;8.00;99.90;;;;;;5110510;28;20188;-74
2022/01/13 11:49:00;;;;;;;118.95;33.95;;;8.10;99.90;;;;;;5115958;27;20189;-75
2022/01/13 11:51:29;;;;;;;115.90;35.15;;;8.10;99.90;;;;;;5109334;28;20207;-72
2022/01/13 11:54:04;;;;;;;117.03;36.97;;;8.10;99.90;;;;;;5111192;28;20191;-72
2022/01/13 11:56:30;;;;;;;110.88;36.13;;;8.20;99.90;;;;;;5118265;27;20245;-74
2022/01/13 11:58:57;;;;;;;114.60;36.97;;;8.20;99.90;;;;;;5110463;28;20185;-73
2022/01/13 12:01:24;;;;;;;111.25;35.75;;;8.20;99.90;;;;;;5109431;27;20669;-71
2022/01/13 12:03:59;;;;;;;115.93;32.85;;;8.20;99.90;;;;;;5099830;27;20188;-75
2022/01/13 12:06:43;;;;;;;106.13;36.17;;;8.30;99.90;;;;;;5112639;27;20185;-75
2022/01/13 12:09:23;;;;;;;113.82;35.58;;;8.20;99.90;;;;;;5108912;28;20189;-74
2022/01/13 12:11:51;;;;;;;92.53;32.03;;;8.30;99.90;;;;;;5112741;27;20182;-75
2022/01/13 12:14:22;;;;;;;105.88;33.78;;;8.20;99.90;;;;;;5117651;27;20242;-73
2022/01/13 12:16:56;;;;;;;107.75;31.98;;;8.20;99.90;;;;;;5107035;28;20528;-74
2022/01/13 12:19:33;;;;;;;102.75;32.20;;;8.20;99.90;;;;;;5121959;27;20552;-74
2022/01/13 12:22:05;;;;;;;101.15;32.50;;;8.20;99.90;;;;;;5112804;27;20189;-76
2022/01/13 12:24:49;;;;;;;91.22;30.13;;;8.20;99.90;;;;;;5114226;27;20548;-74
2022/01/13 12:27:17;;;;;;;94.03;31.48;;;8.10;99.90;;;;;;5105369;28;20242;-74
2022/01/13 12:30:06;;;;;;;99.57;29.50;;;8.10;99.90;;;;;;5118266;27;20185;-74
2022/01/13 12:32:38;;;;;;;97.88;31.02;;;8.10;99.90;;;;;;5106838;28;20177;-75
2022/01/13 12:35:06;;;;;;;90.35;32.95;;;8.10;99.90;;;;;;5110581;28;20607;-75
2022/01/13 12:37:32;;;;;;;90.72;31.17;;;8.20;99.90;;;;;;5111390;27;20181;-75
2022/01/13 12:40:08;;;;;;;85.55;30.40;;;8.20;99.90;;;;;;5118215;27;20189;-73
2022/01/13 12:42:43;;;;;;;84.70;28.20;;;8.20;99.90;;;;;;5108803;28;20240;-74
2022/01/13 12:45:28;;;;;;;84.28;28.92;;;8.20;99.90;;;;;;5110896;27;20184;-75
2022/01/13 12:48:11;;;;;;;85.82;25.77;;;8.30;99.90;;;;;;5108178;27;20247;-74
2022/01/13 12:50:41;;;;;;;92.75;29.77;;;8.30;99.90;;;;;;5119940;27;20181;-73
2022/01/13 12:53:20;;;;;;;90.95;27.35;;;8.20;99.90;;;;;;5109824;27;20614;-75
2022/01/13 12:56:10;;;;;;;92.85;26.98;;;8.20;99.90;;;;;;5107982;28;20192;-72
2022/01/13 12:58:59;;;;;;;93.30;28.20;;;8.10;99.90;;;;;;5108254;27;20201;-72
2022/01/13 13:01:28;;;;;;;89.40;28.08;;;8.10;99.90;;;;;;5121396;27;20228;-76
2022/01/13 13:04:13;;;;;;;103.05;31.35;;;8.10;99.90;;;;;;5112616;27;20189;-70